Time;durP1;ratioP1;P1;durP2;ratioP2;P2;SDS_P1;SDS_P2;PMS_P1;PMS_P2;Temp;Humidity;BMP_temperature;BMP_pressure;BME280_temperature;BME280_humidity;BME280_pressure;Samples;Min_cycle;Max_cycle;Signal;HPM_P1;HPM_P2
2021/07/23 00:01:35;;;;;;;8.13;5.93;;;16.80;71.20;;;;;;5035451;28;20026;-49
2021/07/23 00:04:01;;;;;;;6.22;5.57;;;16.70;71.40;;;;;;5035248;28;20033;-49
2021/07/23 00:06:26;;;;;;;9.65;5.47;;;16.80;71.60;;;;;;5035780;28;20075;-50
2021/07/23 00:08:52;;;;;;;7.90;5.70;;;16.70;71.70;;;;;;5035699;28;20032;-47
2021/07/23 00:11:17;;;;;;;8.88;6.90;;;16.60;71.90;;;;;;5036198;28;20088;-47
2021/07/23 00:13:43;;;;;;;11.75;6.80;;;16.70;71.70;;;;;;5034984;28;20017;-48
2021/07/23 00:16:08;;;;;;;8.13;5.63;;;16.60;71.80;;;;;;5034859;28;20025;-48
2021/07/23 00:18:34;;;;;;;8.23;5.38;;;16.60;71.80;;;;;;5035153;28;20465;-47
2021/07/23 00:21:00;;;;;;;8.15;5.50;;;16.50;72.30;;;;;;5034885;28;20040;-49
2021/07/23 00:23:25;;;;;;;8.95;5.40;;;16.70;71.70;;;;;;5035152;28;20454;-48
2021/07/23 00:25:51;;;;;;;8.43;4.65;;;16.60;71.90;;;;;;5034476;28;20105;-50
2021/07/23 00:28:16;;;;;;;8.32;5.70;;;16.50;72.40;;;;;;5034397;28;20045;-48
2021/07/23 00:30:42;;;;;;;6.43;5.18;;;16.50;72.40;;;;;;5034372;28;20035;-48
2021/07/23 00:33:08;;;;;;;10.07;5.85;;;16.60;72.10;;;;;;5034960;28;20504;-51
2021/07/23 00:35:33;;;;;;;10.02;5.20;;;16.50;72.50;;;;;;5034396;28;20109;-48
2021/07/23 00:37:59;;;;;;;6.70;4.88;;;16.40;72.80;;;;;;5034906;28;20056;-49
2021/07/23 00:40:26;;;;;;;8.60;5.38;;;16.30;73.10;;;;;;5034661;28;20030;-51
2021/07/23 00:42:51;;;;;;;8.25;5.45;;;16.30;73.30;;;;;;5034395;28;20105;-48
2021/07/23 00:45:19;;;;;;;9.52;5.80;;;16.30;73.30;;;;;;5034448;28;20531;-51
2021/07/23 00:47:47;;;;;;;10.95;5.72;;;16.30;73.10;;;;;;5033232;28;20029;-48
2021/07/23 00:50:14;;;;;;;7.47;5.68;;;16.30;73.40;;;;;;5033467;28;20030;-47
2021/07/23 00:52:40;;;;;;;8.05;5.60;;;16.40;73.20;;;;;;5034425;28;20017;-48
2021/07/23 00:55:07;;;;;;;7.07;5.40;;;16.30;73.40;;;;;;5034014;28;20532;-47
2021/07/23 00:57:36;;;;;;;7.80;5.80;;;16.30;73.40;;;;;;5034231;28;20366;-47
2021/07/23 01:00:02;;;;;;;6.82;5.43;;;16.30;73.60;;;;;;5034047;28;20107;-50
2021/07/23 01:02:29;;;;;;;9.02;5.47;;;16.30;73.80;;;;;;5034538;28;20458;-50
2021/07/23 01:04:55;;;;;;;8.80;5.15;;;16.10;74.40;;;;;;5033551;28;20083;-49
2021/07/23 01:07:21;;;;;;;9.07;5.40;;;16.20;74.20;;;;;;5033512;28;20033;-48
2021/07/23 01:09:47;;;;;;;15.18;5.70;;;16.10;74.50;;;;;;5033601;28;20095;-49
2021/07/23 01:12:13;;;;;;;9.13;5.13;;;16.20;74.50;;;;;;5033453;28;20022;-47
2021/07/23 01:14:41;;;;;;;6.03;4.85;;;16.10;74.50;;;;;;5033341;28;20103;-49
2021/07/23 01:17:06;;;;;;;5.63;5.03;;;16.10;74.60;;;;;;5033295;28;20096;-46
2021/07/23 01:19:42;;;;;;;7.93;5.53;;;16.00;75.20;;;;;;5031889;28;20116;-48
2021/07/23 01:22:11;;;;;;;7.93;5.47;;;15.90;75.20;;;;;;5033368;28;20026;-47
2021/07/23 01:24:37;;;;;;;6.97;4.97;;;16.00;75.10;;;;;;5033373;28;20108;-52
2021/07/23 01:27:03;;;;;;;7.75;5.43;;;16.10;74.90;;;;;;5033351;28;20077;-48
2021/07/23 01:29:28;;;;;;;8.25;5.80;;;16.00;75.30;;;;;;5033331;28;20029;-50
2021/07/23 01:31:54;;;;;;;7.35;5.30;;;15.90;75.40;;;;;;5033315;28;20483;-48
2021/07/23 01:34:19;;;;;;;7.30;5.78;;;15.80;75.80;;;;;;5033085;28;20047;-46
2021/07/23 01:36:45;;;;;;;8.73;5.30;;;15.80;76.10;;;;;;5033224;28;20454;-47
2021/07/23 01:39:14;;;;;;;8.23;5.80;;;15.80;76.20;;;;;;5033283;28;20057;-50
2021/07/23 01:41:40;;;;;;;10.93;5.82;;;15.70;76.50;;;;;;5032046;28;20417;-46
2021/07/23 01:44:06;;;;;;;9.10;5.45;;;15.70;76.50;;;;;;5032905;28;20079;-47
2021/07/23 01:46:31;;;;;;;8.30;5.05;;;15.80;76.40;;;;;;5032934;28;20469;-46
2021/07/23 01:48:57;;;;;;;10.35;5.43;;;15.70;76.60;;;;;;5033189;28;20507;-50
2021/07/23 01:51:23;;;;;;;11.23;5.95;;;15.70;76.80;;;;;;5032885;28;20452;-47
2021/07/23 01:53:49;;;;;;;7.32;5.65;;;15.70;76.80;;;;;;5031518;28;20068;-50
2021/07/23 01:56:15;;;;;;;8.90;5.30;;;15.70;76.70;;;;;;5032886;28;20053;-49
2021/07/23 01:58:40;;;;;;;8.95;5.93;;;15.80;76.60;;;;;;5032661;28;20040;-47
2021/07/23 02:01:06;;;;;;;10.48;5.88;;;15.80;76.50;;;;;;5031973;28;20512;-46
2021/07/23 02:03:32;;;;;;;11.52;6.60;;;15.80;76.50;;;;;;5031600;28;20060;-46
2021/07/23 02:05:57;;;;;;;5.97;5.13;;;15.90;76.10;;;;;;5032786;28;20029;-47
2021/07/23 02:08:23;;;;;;;9.80;5.72;;;15.80;76.20;;;;;;5032471;28;20430;-46
2021/07/23 02:10:49;;;;;;;13.13;6.00;;;15.90;76.00;;;;;;5032713;28;20033;-46
2021/07/23 02:13:14;;;;;;;15.55;6.78;;;15.80;76.20;;;;;;5032665;28;20358;-47
2021/07/23 02:15:41;;;;;;;11.80;6.60;;;15.80;76.40;;;;;;5032438;28;20056;-48
2021/07/23 02:18:07;;;;;;;10.85;6.50;;;15.80;76.50;;;;;;5033248;28;20120;-48
2021/07/23 02:20:33;;;;;;;11.77;5.85;;;15.80;76.60;;;;;;5032474;28;20123;-46
2021/07/23 02:22:58;;;;;;;10.15;6.22;;;15.80;76.60;;;;;;5032568;28;20462;-51
2021/07/23 02:25:24;;;;;;;9.52;6.20;;;15.70;76.80;;;;;;5032628;28;20026;-51
2021/07/23 02:27:50;;;;;;;7.97;6.07;;;15.60;77.20;;;;;;5032362;28;20422;-51
2021/07/23 02:30:15;;;;;;;7.18;6.45;;;15.60;77.40;;;;;;5032292;28;20108;-47
2021/07/23 02:32:41;;;;;;;8.77;6.47;;;15.60;77.30;;;;;;5032447;28;20132;-47
2021/07/23 02:35:07;;;;;;;9.07;5.95;;;15.50;77.50;;;;;;5032289;28;20530;-47
2021/07/23 02:37:33;;;;;;;9.10;6.65;;;15.50;77.50;;;;;;5032597;28;20053;-46
2021/07/23 02:39:59;;;;;;;10.30;6.18;;;15.50;78.00;;;;;;5032579;28;20029;-47
2021/07/23 02:42:25;;;;;;;10.70;5.95;;;15.40;78.00;;;;;;5032430;28;20099;-46
2021/07/23 02:44:51;;;;;;;9.18;6.57;;;15.40;78.20;;;;;;5032473;28;20462;-47
2021/07/23 02:47:17;;;;;;;12.02;7.85;;;15.40;78.30;;;;;;5031169;28;20114;-48
2021/07/23 02:49:42;;;;;;;13.68;7.07;;;15.40;78.40;;;;;;5032267;28;20034;-48
2021/07/23 02:52:08;;;;;;;11.85;6.43;;;15.30;78.70;;;;;;5032370;28;20022;-47
2021/07/23 02:54:33;;;;;;;12.82;6.10;;;15.20;79.10;;;;;;5032294;28;20028;-49
2021/07/23 02:56:59;;;;;;;11.93;7.45;;;15.20;79.20;;;;;;5032422;28;20026;-51
2021/07/23 02:59:25;;;;;;;11.75;6.50;;;15.10;79.50;;;;;;5032379;28;20025;-49
2021/07/23 03:01:50;;;;;;;8.50;6.43;;;15.20;79.30;;;;;;5032441;28;20029;-48
2021/07/23 03:04:16;;;;;;;9.70;7.47;;;15.10;80.00;;;;;;5032842;28;20104;-46
2021/07/23 03:06:41;;;;;;;10.13;7.20;;;15.10;79.60;;;;;;5032255;28;20037;-46
2021/07/23 03:09:07;;;;;;;15.70;7.13;;;15.00;79.80;;;;;;5033099;28;20029;-45
2021/07/23 03:11:33;;;;;;;13.15;7.13;;;15.00;80.00;;;;;;5032412;28;20029;-46
2021/07/23 03:13:58;;;;;;;10.90;6.90;;;15.00;80.30;;;;;;5035807;28;20128;-46
2021/07/23 03:16:24;;;;;;;10.50;6.80;;;15.10;79.90;;;;;;5035999;28;20048;-45
2021/07/23 03:18:50;;;;;;;9.68;7.00;;;15.00;80.20;;;;;;5034343;28;20026;-46
2021/07/23 03:21:21;;;;;;;11.85;7.95;;;15.00;80.20;;;;;;5035729;28;20032;-47
2021/07/23 03:23:47;;;;;;;12.25;6.85;;;14.90;80.50;;;;;;5035599;28;20099;-47
2021/07/23 03:26:13;;;;;;;12.52;8.27;;;14.80;80.70;;;;;;5035318;28;20100;-48
2021/07/23 03:28:38;;;;;;;17.23;7.82;;;14.80;81.00;;;;;;5035704;28;20109;-47
2021/07/23 03:31:04;;;;;;;12.23;7.63;;;14.80;80.90;;;;;;5035430;28;20108;-47
2021/07/23 03:33:30;;;;;;;12.82;8.73;;;14.80;81.20;;;;;;5035414;28;20555;-46
2021/07/23 03:35:55;;;;;;;11.68;7.88;;;14.80;81.10;;;;;;5035583;28;20021;-46
2021/07/23 03:38:21;;;;;;;9.75;7.32;;;14.90;80.60;;;;;;5035225;28;20053;-47
2021/07/23 03:40:46;;;;;;;14.10;7.60;;;14.90;80.80;;;;;;5035534;28;20026;-46
2021/07/23 03:43:12;;;;;;;13.50;7.25;;;14.80;80.90;;;;;;5035492;28;20161;-49
2021/07/23 03:45:38;;;;;;;12.55;7.90;;;14.80;81.20;;;;;;5035230;28;20393;-47
2021/07/23 03:48:04;;;;;;;12.30;7.80;;;14.70;81.40;;;;;;5035220;28;20112;-49
2021/07/23 03:50:29;;;;;;;12.95;8.05;;;14.70;81.40;;;;;;5035354;28;20426;-46
2021/07/23 03:52:55;;;;;;;12.13;7.13;;;14.70;81.60;;;;;;5035377;28;20370;-49
2021/07/23 03:55:21;;;;;;;13.23;8.05;;;14.70;81.50;;;;;;5035156;28;20025;-46
2021/07/23 03:57:46;;;;;;;9.68;7.35;;;14.70;81.50;;;;;;5035173;28;20053;-46
2021/07/23 04:00:12;;;;;;;11.25;7.72;;;14.80;81.60;;;;;;5035329;28;20040;-47
2021/07/23 04:02:38;;;;;;;13.50;7.22;;;14.80;81.10;;;;;;5035049;28;20029;-48
2021/07/23 04:05:05;;;;;;;10.75;8.15;;;14.70;81.10;;;;;;5034871;28;20104;-46
2021/07/23 04:07:31;;;;;;;9.18;6.82;;;14.70;81.40;;;;;;5033567;28;20448;-51
2021/07/23 04:09:58;;;;;;;14.55;7.82;;;14.80;80.70;;;;;;5034795;28;20075;-49
2021/07/23 04:12:23;;;;;;;12.57;8.80;;;14.70;81.20;;;;;;5035134;28;20029;-50
2021/07/23 04:14:49;;;;;;;15.00;8.38;;;14.60;81.70;;;;;;5034926;28;20540;-47
2021/07/23 04:17:15;;;;;;;10.25;7.78;;;14.60;81.80;;;;;;5034863;28;20018;-45
2021/07/23 04:19:40;;;;;;;10.65;7.75;;;14.60;81.60;;;;;;5034625;28;20072;-46
2021/07/23 04:22:06;;;;;;;12.15;7.70;;;14.50;82.10;;;;;;5035052;28;20091;-47
2021/07/23 04:24:32;;;;;;;10.05;8.23;;;14.50;82.00;;;;;;5033581;28;20037;-47
2021/07/23 04:26:58;;;;;;;11.35;8.57;;;14.60;82.00;;;;;;5034536;28;20107;-49
2021/07/23 04:29:24;;;;;;;14.48;9.20;;;14.70;81.50;;;;;;5034654;28;20033;-50
2021/07/23 04:31:50;;;;;;;13.75;8.80;;;14.50;82.00;;;;;;5034791;28;20041;-46
2021/07/23 04:34:15;;;;;;;13.20;8.30;;;14.50;82.10;;;;;;5034233;28;20021;-49
2021/07/23 04:36:41;;;;;;;18.02;8.15;;;14.50;82.10;;;;;;5034135;28;20045;-51
2021/07/23 04:39:07;;;;;;;11.38;8.23;;;14.40;82.20;;;;;;5033963;28;20064;-47
2021/07/23 04:41:33;;;;;;;17.80;8.75;;;14.60;81.90;;;;;;5034227;28;20026;-48
2021/07/23 04:43:58;;;;;;;13.60;8.65;;;14.50;82.10;;;;;;5034047;28;20025;-47
2021/07/23 04:46:24;;;;;;;13.85;8.77;;;14.50;81.90;;;;;;5033907;28;20053;-47
2021/07/23 04:48:50;;;;;;;13.13;8.50;;;14.40;82.30;;;;;;5032254;28;20049;-48
2021/07/23 04:51:15;;;;;;;16.38;8.98;;;14.50;82.00;;;;;;5033432;28;20025;-48
2021/07/23 04:53:41;;;;;;;14.65;9.05;;;14.60;82.00;;;;;;5033746;28;20393;-48
2021/07/23 04:56:07;;;;;;;12.50;9.07;;;14.60;82.00;;;;;;5033413;28;20036;-50
2021/07/23 04:58:33;;;;;;;11.73;7.63;;;14.70;81.70;;;;;;5033339;28;20029;-47
2021/07/23 05:00:59;;;;;;;10.88;8.27;;;14.70;81.60;;;;;;5033511;28;20061;-49
2021/07/23 05:03:31;;;;;;;11.95;8.77;;;14.80;81.20;;;;;;5033644;28;20105;-47
2021/07/23 05:05:58;;;;;;;13.35;8.52;;;14.80;81.30;;;;;;5033841;28;20088;-48
2021/07/23 05:08:24;;;;;;;14.07;8.65;;;14.70;81.50;;;;;;5033577;28;20355;-49
2021/07/23 05:10:49;;;;;;;12.60;8.18;;;14.90;81.20;;;;;;5033504;28;20104;-47
2021/07/23 05:13:15;;;;;;;12.57;8.13;;;15.00;80.70;;;;;;5033274;28;20358;-47
2021/07/23 05:15:41;;;;;;;15.25;8.73;;;14.90;80.60;;;;;;5033197;28;20040;-47
2021/07/23 05:18:08;;;;;;;13.25;8.70;;;15.00;80.80;;;;;;5033203;28;20033;-48
2021/07/23 05:20:34;;;;;;;14.18;7.75;;;15.10;80.20;;;;;;5031974;28;20028;-47
2021/07/23 05:23:01;;;;;;;10.00;7.57;;;15.20;79.80;;;;;;5032897;28;20109;-48
2021/07/23 05:25:27;;;;;;;10.88;7.93;;;15.30;79.90;;;;;;5033030;28;20052;-51
2021/07/23 05:27:52;;;;;;;11.85;7.72;;;15.30;79.70;;;;;;5032827;28;20049;-47
2021/07/23 05:30:18;;;;;;;13.75;7.90;;;15.40;78.90;;;;;;5032519;28;20026;-49
2021/07/23 05:32:44;;;;;;;11.30;7.63;;;15.30;79.40;;;;;;5032656;28;20021;-48
2021/07/23 05:35:09;;;;;;;12.55;8.15;;;15.30;79.50;;;;;;5032527;28;20026;-52
2021/07/23 05:37:35;;;;;;;14.25;7.47;;;15.40;78.90;;;;;;5032800;28;20017;-47
2021/07/23 05:40:00;;;;;;;12.82;8.05;;;15.50;78.50;;;;;;5032393;28;20025;-46
2021/07/23 05:42:26;;;;;;;12.82;8.02;;;15.70;78.10;;;;;;5032662;28;20021;-48
2021/07/23 05:44:52;;;;;;;9.85;8.18;;;15.70;77.60;;;;;;5032459;28;20418;-49
2021/07/23 05:47:18;;;;;;;12.77;7.60;;;15.70;77.90;;;;;;5032406;28;20037;-48
2021/07/23 05:49:44;;;;;;;20.70;8.85;;;15.70;77.50;;;;;;5032319;28;20091;-47
2021/07/23 05:52:10;;;;;;;11.52;7.22;;;15.70;77.60;;;;;;5032270;28;20026;-46
2021/07/23 05:54:36;;;;;;;11.55;8.00;;;15.70;77.40;;;;;;5032734;28;20034;-47
2021/07/23 05:57:02;;;;;;;9.38;7.35;;;15.80;77.20;;;;;;5032955;28;20029;-48
2021/07/23 05:59:27;;;;;;;10.38;7.15;;;15.90;77.10;;;;;;5033024;28;20488;-49
2021/07/23 06:01:53;;;;;;;12.85;7.75;;;15.90;77.10;;;;;;5032564;28;20029;-48
2021/07/23 06:04:19;;;;;;;10.45;7.00;;;16.10;76.50;;;;;;5032543;28;20021;-47
2021/07/23 06:06:44;;;;;;;10.65;6.32;;;16.30;75.90;;;;;;5032586;28;20037;-47
2021/07/23 06:09:10;;;;;;;10.52;6.50;;;16.30;75.90;;;;;;5032141;28;20036;-48
2021/07/23 06:11:38;;;;;;;11.55;6.20;;;16.30;75.30;;;;;;5032521;28;20029;-50
2021/07/23 06:14:05;;;;;;;9.18;6.93;;;16.50;74.80;;;;;;5032027;28;20120;-47
2021/07/23 06:16:30;;;;;;;8.98;6.28;;;16.70;74.10;;;;;;5032743;28;20029;-51
2021/07/23 06:18:56;;;;;;;9.32;6.72;;;16.90;73.50;;;;;;5030834;28;20079;-46
2021/07/23 06:21:24;;;;;;;6.90;5.60;;;17.00;73.20;;;;;;5033024;28;20040;-50
2021/07/23 06:23:49;;;;;;;14.65;6.40;;;17.20;72.40;;;;;;5032535;28;20104;-48
2021/07/23 06:26:15;;;;;;;10.15;5.00;;;17.20;71.50;;;;;;5032461;28;20516;-48
2021/07/23 06:28:41;;;;;;;10.93;6.22;;;17.20;71.30;;;;;;5032567;28;20048;-47
2021/07/23 06:31:07;;;;;;;17.73;7.78;;;17.10;71.80;;;;;;5032549;28;20416;-50
2021/07/23 06:33:33;;;;;;;25.27;7.25;;;17.10;71.60;;;;;;5032711;28;20021;-48
2021/07/23 06:36:00;;;;;;;9.63;5.85;;;17.20;72.00;;;;;;5032148;28;20466;-48
2021/07/23 06:38:26;;;;;;;7.55;5.43;;;17.30;71.20;;;;;;5032496;28;20044;-49
2021/07/23 06:40:53;;;;;;;7.85;4.80;;;17.30;70.70;;;;;;5032529;28;20026;-49
2021/07/23 06:43:19;;;;;;;15.00;6.18;;;17.50;70.40;;;;;;5032784;28;20469;-49
2021/07/23 06:45:55;;;;;;;11.10;5.40;;;17.80;69.40;;;;;;5032650;28;20389;-47
2021/07/23 06:48:21;;;;;;;8.98;4.90;;;17.90;68.80;;;;;;5035783;28;20037;-50
2021/07/23 06:50:46;;;;;;;9.88;5.32;;;18.00;68.20;;;;;;5035888;28;20139;-49
2021/07/23 06:53:12;;;;;;;7.18;4.88;;;18.20;68.20;;;;;;5035997;28;20061;-47
2021/07/23 06:55:38;;;;;;;9.13;5.40;;;18.30;67.60;;;;;;5036097;28;20021;-48
2021/07/23 06:58:03;;;;;;;10.65;4.95;;;18.60;66.70;;;;;;5035518;28;20476;-48
2021/07/23 07:00:29;;;;;;;7.40;4.53;;;18.70;65.70;;;;;;5035912;28;20052;-48
2021/07/23 07:02:55;;;;;;;7.25;5.00;;;18.70;65.90;;;;;;5035726;28;20048;-47
2021/07/23 07:05:22;;;;;;;7.40;4.88;;;18.70;65.30;;;;;;5035812;28;20041;-51
2021/07/23 07:07:47;;;;;;;10.05;4.68;;;18.50;65.90;;;;;;5034766;28;20038;-49
2021/07/23 07:10:13;;;;;;;5.70;4.57;;;18.30;66.40;;;;;;5035246;28;20531;-48
2021/07/23 07:12:39;;;;;;;8.25;4.57;;;18.30;66.00;;;;;;5035511;28;20051;-50
2021/07/23 07:15:05;;;;;;;7.20;4.10;;;18.50;65.40;;;;;;5035617;28;20445;-50
2021/07/23 07:17:31;;;;;;;5.13;3.95;;;18.70;64.60;;;;;;5034448;28;20037;-47
2021/07/23 07:19:59;;;;;;;10.65;4.57;;;18.50;65.40;;;;;;5035672;28;20389;-49
2021/07/23 07:22:26;;;;;;;8.50;4.30;;;18.70;64.80;;;;;;5035823;28;20026;-49
2021/07/23 07:24:53;;;;;;;8.57;4.15;;;18.80;64.70;;;;;;5036174;28;20025;-55
2021/07/23 07:27:18;;;;;;;8.82;4.18;;;19.10;63.80;;;;;;5035524;28;20049;-51
2021/07/23 07:29:44;;;;;;;13.07;4.13;;;19.00;64.10;;;;;;5035635;28;20028;-51
2021/07/23 07:32:10;;;;;;;5.95;3.80;;;19.20;63.30;;;;;;5017866;28;20128;-54
2021/07/23 07:34:36;;;;;;;10.02;4.03;;;19.30;62.70;;;;;;5034199;28;20497;-50
2021/07/23 07:37:03;;;;;;;5.28;3.53;;;19.30;62.10;;;;;;5035398;28;20058;-51
2021/07/23 07:39:30;;;;;;;5.88;3.65;;;19.50;61.50;;;;;;5035383;28;20036;-48
2021/07/23 07:41:56;;;;;;;8.70;3.90;;;19.50;61.50;;;;;;5034898;28;20052;-50
2021/07/23 07:44:21;;;;;;;8.73;3.67;;;19.80;60.60;;;;;;5035217;28;20048;-51
2021/07/23 07:46:47;;;;;;;7.47;3.38;;;20.60;58.80;;;;;;5034771;28;20029;-48
2021/07/23 07:49:12;;;;;;;5.88;3.25;;;21.20;56.90;;;;;;5035302;28;20030;-49
2021/07/23 07:51:38;;;;;;;8.25;3.53;;;21.10;56.50;;;;;;5034743;28;20421;-48
2021/07/23 07:54:04;;;;;;;4.00;3.45;;;20.30;58.50;;;;;;5034442;28;20032;-49
2021/07/23 07:56:30;;;;;;;4.95;3.85;;;20.30;59.10;;;;;;5034868;28;20044;-48
2021/07/23 07:58:55;;;;;;;5.32;2.83;;;20.60;57.90;;;;;;5034634;28;20104;-48
2021/07/23 08:01:21;;;;;;;8.95;3.72;;;20.40;59.20;;;;;;5034394;28;20025;-52
2021/07/23 08:03:47;;;;;;;8.55;4.38;;;20.30;59.20;;;;;;5035130;28;20040;-50
2021/07/23 08:06:24;;;;;;;5.80;3.60;;;20.30;59.10;;;;;;5033247;28;20029;-49
2021/07/23 08:08:51;;;;;;;9.70;4.57;;;20.40;59.20;;;;;;5034618;28;20040;-51
2021/07/23 08:11:18;;;;;;;6.38;3.70;;;21.00;57.30;;;;;;5034915;28;20033;-50
2021/07/23 08:13:44;;;;;;;4.55;3.47;;;21.00;57.10;;;;;;5034568;28;20028;-54
2021/07/23 08:16:12;;;;;;;5.55;4.28;;;20.70;58.30;;;;;;5034168;28;20021;-50
2021/07/23 08:18:38;;;;;;;6.38;3.53;;;21.30;56.80;;;;;;5034586;28;20139;-50
2021/07/23 08:21:04;;;;;;;5.60;3.78;;;21.20;57.20;;;;;;5034659;28;20114;-49
2021/07/23 08:23:32;;;;;;;5.45;3.85;;;21.70;56.30;;;;;;5034501;28;20033;-50
2021/07/23 08:25:58;;;;;;;4.72;4.05;;;22.10;54.40;;;;;;5034380;28;20058;-49
2021/07/23 08:28:23;;;;;;;6.63;4.38;;;21.90;54.40;;;;;;5034184;28;20041;-50
2021/07/23 08:30:52;;;;;;;9.23;4.30;;;21.70;55.10;;;;;;5033945;28;20029;-52
2021/07/23 08:33:21;;;;;;;7.93;4.47;;;21.30;56.70;;;;;;5034318;28;20094;-51
2021/07/23 08:35:47;;;;;;;5.80;4.35;;;21.50;56.10;;;;;;5032869;28;20091;-49
2021/07/23 08:38:12;;;;;;;5.38;3.60;;;22.50;53.70;;;;;;5033684;28;20470;-49
2021/07/23 08:40:38;;;;;;;7.40;4.55;;;22.00;53.70;;;;;;5034155;28;20125;-53
2021/07/23 08:43:05;;;;;;;7.40;3.42;;;22.80;52.60;;;;;;5032468;28;20397;-52
2021/07/23 08:45:30;;;;;;;6.05;3.78;;;22.90;52.30;;;;;;5032186;28;20529;-48
2021/07/23 08:47:56;;;;;;;3.97;3.40;;;22.50;53.30;;;;;;5033869;28;20029;-49
2021/07/23 08:50:24;;;;;;;7.50;3.65;;;23.10;52.60;;;;;;5034027;28;20033;-49
2021/07/23 08:52:50;;;;;;;6.10;3.65;;;23.70;50.40;;;;;;5033526;28;20026;-50
2021/07/23 08:55:18;;;;;;;7.38;4.28;;;23.20;51.60;;;;;;5033769;28;20022;-51
2021/07/23 08:57:45;;;;;;;5.75;4.32;;;22.70;52.70;;;;;;5033715;28;20021;-47
2021/07/23 09:00:17;;;;;;;5.80;4.53;;;22.20;54.00;;;;;;5033559;28;20428;-50
2021/07/23 09:02:59;;;;;;;9.65;4.68;;;22.30;53.30;;;;;;5033864;28;20029;-49
2021/07/23 09:05:33;;;;;;;9.57;4.28;;;23.00;52.00;;;;;;5033429;28;20026;-52
2021/07/23 09:08:11;;;;;;;10.15;4.10;;;22.40;52.60;;;;;;5033456;28;20469;-51
2021/07/23 09:10:37;;;;;;;9.43;4.05;;;22.60;52.20;;;;;;5033174;28;20033;-50
2021/07/23 09:13:05;;;;;;;4.57;3.88;;;23.30;51.00;;;;;;5033043;28;20034;-48
2021/07/23 09:22:19;;;;;;;3.97;3.58;;;23.40;49.00;;;;;;5034184;28;20434;-50
2021/07/23 09:24:54;;;;;;;6.40;3.78;;;23.30;49.30;;;;;;5033084;28;20033;-49
2021/07/23 09:27:33;;;;;;;7.82;3.63;;;23.50;49.00;;;;;;5033015;28;20545;-51
2021/07/23 09:29:59;;;;;;;3.75;3.38;;;24.40;47.50;;;;;;5032492;28;20021;-47
2021/07/23 09:32:28;;;;;;;5.22;3.97;;;23.80;48.20;;;;;;5031628;28;20022;-53
2021/07/23 09:35:14;;;;;;;5.65;4.22;;;23.30;49.70;;;;;;5032527;28;20030;-49
2021/07/23 09:37:57;;;;;;;5.85;3.97;;;23.80;48.00;;;;;;5032442;28;20042;-53
2021/07/23 09:40:24;;;;;;;6.25;3.92;;;24.60;46.50;;;;;;5032371;28;20021;-49
2021/07/23 09:42:59;;;;;;;7.20;5.03;;;25.30;44.90;;;;;;5033029;28;20029;-50
2021/07/23 09:45:30;;;;;;;10.30;4.35;;;25.30;44.20;;;;;;5032888;28;20029;-52
2021/07/23 09:48:14;;;;;;;4.18;3.78;;;25.20;44.60;;;;;;5032723;28;20048;-50
2021/07/23 09:50:46;;;;;;;6.20;4.68;;;24.70;45.40;;;;;;5032900;28;20121;-51
2021/07/23 09:53:16;;;;;;;5.38;3.78;;;24.10;47.10;;;;;;5032653;28;20021;-48
2021/07/23 09:55:46;;;;;;;7.00;4.05;;;24.50;46.20;;;;;;5032472;28;20116;-49
2021/07/23 09:58:15;;;;;;;7.18;3.40;;;24.80;45.60;;;;;;5032372;28;20029;-51
2021/07/23 10:00:42;;;;;;;7.30;4.20;;;24.80;45.80;;;;;;5032425;28;20056;-49
2021/07/23 10:03:12;;;;;;;6.88;3.72;;;24.60;45.90;;;;;;5032818;28;20037;-50
2021/07/23 10:05:47;;;;;;;11.27;4.22;;;25.50;44.10;;;;;;5033048;28;20024;-48
2021/07/23 10:08:20;;;;;;;6.60;4.38;;;24.30;46.50;;;;;;5032457;28;20079;-50
2021/07/23 10:10:50;;;;;;;5.22;4.47;;;24.40;46.60;;;;;;5032540;28;20381;-48
2021/07/23 10:13:19;;;;;;;6.55;4.30;;;24.30;47.50;;;;;;5032314;28;20022;-47
2021/07/23 10:15:45;;;;;;;9.05;5.00;;;24.80;45.80;;;;;;5032506;28;20053;-51
2021/07/23 10:18:11;;;;;;;9.70;4.57;;;24.50;46.10;;;;;;5032193;28;20063;-50
2021/07/23 10:20:38;;;;;;;6.18;4.28;;;24.70;45.60;;;;;;5030755;28;20030;-50
2021/07/23 10:23:04;;;;;;;6.15;4.38;;;24.90;45.20;;;;;;5035349;28;20055;-52
2021/07/23 10:25:34;;;;;;;6.07;3.95;;;25.30;44.70;;;;;;5036461;28;20531;-51
2021/07/23 10:28:00;;;;;;;5.78;4.47;;;26.10;43.10;;;;;;5036246;28;20050;-49
2021/07/23 10:30:33;;;;;;;6.03;4.53;;;26.80;41.00;;;;;;5036490;28;20047;-49
2021/07/23 10:33:00;;;;;;;5.88;4.55;;;26.80;41.20;;;;;;5036432;28;20032;-51
2021/07/23 10:35:25;;;;;;;6.10;3.70;;;26.00;42.80;;;;;;5036538;28;20056;-50
2021/07/23 10:37:55;;;;;;;4.18;3.78;;;27.50;39.70;;;;;;5036458;28;20461;-51
2021/07/23 10:40:43;;;;;;;6.70;3.92;;;28.00;39.00;;;;;;5036163;28;20047;-52
2021/07/23 10:44:09;;;;;;;6.38;3.88;;;26.80;40.70;;;;;;5070593;27;20450;-48
2021/07/23 10:46:43;;;;;;;8.43;4.05;;;26.50;41.80;;;;;;5070141;28;20056;-50
2021/07/23 10:49:10;;;;;;;5.45;4.20;;;26.00;42.80;;;;;;5069944;28;20021;-51
2021/07/23 10:51:50;;;;;;;12.13;4.28;;;26.00;42.60;;;;;;5069944;28;20032;-48
2021/07/23 10:54:20;;;;;;;5.20;4.03;;;26.60;41.70;;;;;;5070006;28;20078;-53
2021/07/23 10:57:01;;;;;;;6.35;4.45;;;26.90;41.10;;;;;;5068421;28;20033;-49
2021/07/23 10:59:38;;;;;;;10.73;4.75;;;26.90;40.60;;;;;;5070144;28;20036;-52
2021/07/23 11:02:06;;;;;;;7.35;4.90;;;27.20;39.80;;;;;;5069316;28;20040;-48
2021/07/23 11:04:33;;;;;;;6.97;4.50;;;28.30;37.30;;;;;;5069095;28;20384;-52
2021/07/23 11:07:03;;;;;;;4.22;3.75;;;28.40;37.00;;;;;;5069588;28;20044;-51
2021/07/23 11:09:31;;;;;;;5.10;4.15;;;29.30;36.20;;;;;;5069681;28;20094;-52
2021/07/23 11:12:16;;;;;;;10.75;4.78;;;27.80;38.60;;;;;;5069888;28;20036;-49
2021/07/23 11:14:42;;;;;;;9.35;5.00;;;26.90;40.30;;;;;;5070085;28;20029;-50
2021/07/23 11:17:12;;;;;;;6.15;4.38;;;27.40;39.30;;;;;;5069223;28;20036;-54
2021/07/23 11:19:37;;;;;;;7.13;5.45;;;26.80;40.00;;;;;;5069589;28;20032;-50
2021/07/23 11:22:03;;;;;;;7.95;4.45;;;27.40;38.90;;;;;;5069185;28;20028;-50
2021/07/23 11:24:35;;;;;;;7.95;6.05;;;27.00;39.30;;;;;;5069049;28;20104;-51
2021/07/23 11:27:01;;;;;;;8.13;3.97;;;26.80;40.20;;;;;;5069345;28;20017;-54
2021/07/23 11:29:32;;;;;;;6.70;4.03;;;27.40;39.00;;;;;;5069458;28;20017;-51
2021/07/23 11:32:09;;;;;;;4.75;3.53;;;28.30;36.80;;;;;;5069333;28;20520;-49
2021/07/23 11:34:41;;;;;;;9.43;4.10;;;28.50;36.70;;;;;;5068167;28;20358;-49
2021/07/23 11:37:23;;;;;;;5.15;4.63;;;28.30;37.20;;;;;;5068986;28;20546;-49
2021/07/23 12:20:04;;;;;;;5.93;3.15;;;28.10;36.10;;;;;;5070431;28;20493;-50
2021/07/23 12:22:30;;;;;;;5.65;3.58;;;28.20;35.50;;;;;;5068973;28;20086;-50
2021/07/23 12:24:56;;;;;;;6.68;4.03;;;27.70;35.50;;;;;;5069786;28;20021;-49
2021/07/23 12:27:23;;;;;;;3.90;3.42;;;27.70;36.00;;;;;;5070234;28;20100;-51
2021/07/23 12:29:52;;;;;;;5.07;3.60;;;28.40;34.90;;;;;;5069741;28;20488;-51
2021/07/23 12:32:23;;;;;;;8.23;3.40;;;28.90;35.00;;;;;;5070315;28;20024;-48
2021/07/23 12:34:56;;;;;;;6.22;3.42;;;28.60;35.20;;;;;;5070551;28;20389;-50
2021/07/23 12:37:21;;;;;;;4.30;3.08;;;28.50;35.10;;;;;;5070375;28;20107;-54
2021/07/23 12:39:59;;;;;;;3.55;3.20;;;28.80;34.90;;;;;;5070247;28;20512;-52
2021/07/23 12:42:26;;;;;;;3.20;2.90;;;28.50;35.20;;;;;;5069677;28;20025;-52
2021/07/23 12:44:52;;;;;;;6.35;3.28;;;28.90;34.80;;;;;;5069579;28;20100;-49
2021/07/23 12:47:23;;;;;;;6.57;3.92;;;29.60;33.00;;;;;;5069264;28;20429;-50
2021/07/23 12:49:51;;;;;;;4.55;2.72;;;29.60;33.20;;;;;;5069380;28;20081;-50
2021/07/23 12:52:17;;;;;;;6.47;4.22;;;29.10;34.10;;;;;;5069098;28;20029;-49
2021/07/23 12:54:48;;;;;;;4.57;2.58;;;29.10;34.20;;;;;;5069050;28;20484;-48
2021/07/23 12:57:22;;;;;;;4.88;3.63;;;28.40;34.00;;;;;;5068592;28;20029;-51
2021/07/23 12:59:49;;;;;;;7.88;3.20;;;27.40;35.60;;;;;;5068878;28;20024;-52
2021/07/23 13:02:16;;;;;;;4.65;3.20;;;27.60;35.10;;;;;;5068600;28;20032;-51
2021/07/23 13:04:43;;;;;;;3.28;2.95;;;28.30;34.70;;;;;;5068907;28;20366;-50
2021/07/23 13:07:12;;;;;;;3.47;2.70;;;28.20;34.60;;;;;;5068747;28;20358;-48
2021/07/23 13:09:42;;;;;;;4.80;3.47;;;29.00;33.20;;;;;;5069101;28;20098;-51
2021/07/23 13:12:08;;;;;;;11.57;3.53;;;29.60;32.30;;;;;;5069313;28;20021;-53
2021/07/23 13:14:34;;;;;;;4.88;2.90;;;29.50;32.40;;;;;;5070263;28;20479;-49
2021/07/23 13:17:01;;;;;;;6.50;3.13;;;28.60;33.60;;;;;;5068977;28;20025;-49
2021/07/23 13:19:27;;;;;;;3.75;3.00;;;28.50;33.60;;;;;;5068807;28;20451;-49
2021/07/23 13:21:52;;;;;;;6.13;3.40;;;29.50;32.60;;;;;;5068599;28;20017;-49
2021/07/23 13:24:18;;;;;;;7.40;3.47;;;29.80;31.60;;;;;;5068723;28;20033;-50
2021/07/23 13:26:44;;;;;;;7.22;3.22;;;30.70;30.60;;;;;;5068567;28;20024;-50
2021/07/23 13:29:13;;;;;;;5.90;3.20;;;29.80;31.40;;;;;;5068294;28;20025;-48
2021/07/23 13:31:39;;;;;;;4.68;2.92;;;29.50;31.70;;;;;;5054814;28;20029;-47